createdAt,value
2019-04-25T00:02:30.886Z,18.40
2019-04-25T00:05:01.329Z,18.30
2019-04-25T00:07:31.260Z,18.30
2019-04-25T00:10:01.618Z,18.30
2019-04-25T00:12:32.006Z,18.30
2019-04-25T00:15:01.428Z,18.30
2019-04-25T00:17:31.621Z,18.30
2019-04-25T00:20:01.642Z,18.30
2019-04-25T00:22:32.495Z,18.30
2019-04-25T00:25:18.001Z,18.30
2019-04-25T00:27:47.160Z,18.30
2019-04-25T00:30:15.941Z,18.30
2019-04-25T00:32:45.321Z,18.20
2019-04-25T00:35:13.992Z,18.20
2019-04-25T00:37:44.913Z,18.20
2019-04-25T00:40:13.573Z,18.20
2019-04-25T00:42:43.628Z,18.20
2019-04-25T00:45:14.089Z,18.20
2019-04-25T00:47:43.870Z,18.10
2019-04-25T00:50:13.389Z,18.10
2019-04-25T00:52:43.504Z,18.10
2019-04-25T00:55:14.341Z,18.10
2019-04-25T00:57:44.630Z,18.10
2019-04-25T01:00:21.840Z,18.10
2019-04-25T01:02:58.115Z,18.10
2019-04-25T01:05:26.823Z,18.10
2019-04-25T01:07:55.425Z,18.00
2019-04-25T01:10:24.230Z,18.00
2019-04-25T01:12:53.376Z,18.00
2019-04-25T01:15:23.474Z,18.00
2019-04-25T01:17:53.421Z,17.90
2019-04-25T01:20:23.845Z,17.90
2019-04-25T01:22:55.484Z,17.90
2019-04-25T01:25:23.410Z,17.90
2019-04-25T01:27:53.915Z,17.90
2019-04-25T01:30:24.499Z,17.90
2019-04-25T01:32:54.555Z,17.80
2019-04-25T01:35:25.174Z,17.80
2019-04-25T01:38:07.230Z,17.70
2019-04-25T01:40:43.906Z,17.60
2019-04-25T01:43:17.181Z,17.60
2019-04-25T01:45:45.995Z,17.60
2019-04-25T01:48:14.695Z,17.60
2019-04-25T01:50:43.973Z,17.60
2019-04-25T01:53:14.491Z,17.60
2019-04-25T01:55:53.843Z,17.60
2019-04-25T01:58:13.779Z,17.60
2019-04-25T02:00:44.985Z,17.60
2019-04-25T02:03:14.141Z,17.70
2019-04-25T02:05:43.866Z,17.70
2019-04-25T02:08:14.198Z,17.60
2019-04-25T02:10:44.573Z,17.60
2019-04-25T02:13:14.816Z,17.60
2019-04-25T02:15:43.662Z,17.60
2019-04-25T02:18:13.700Z,17.60
2019-04-25T02:20:43.692Z,17.60
2019-04-25T02:23:14.008Z,17.60
2019-04-25T02:25:44.288Z,17.50
2019-04-25T02:28:15.602Z,17.50
2019-04-25T02:30:45.322Z,17.40
2019-04-25T02:33:14.593Z,17.40
2019-04-25T02:35:46.570Z,17.40
2019-04-25T02:38:16.567Z,17.40
2019-04-25T02:40:45.447Z,17.40
2019-04-25T02:43:14.412Z,17.40
2019-04-25T02:45:47.497Z,17.40
2019-04-25T02:48:30.158Z,17.40
2019-04-25T02:51:01.214Z,17.40
2019-04-25T02:53:37.669Z,17.30
2019-04-25T02:56:26.209Z,17.30
2019-04-25T02:58:36.901Z,17.30
2019-04-25T03:01:18.018Z,17.30
2019-04-25T03:03:38.297Z,17.30
2019-04-25T03:06:09.388Z,17.20
2019-04-25T03:08:37.625Z,17.20
2019-04-25T03:11:08.099Z,17.20
2019-04-25T03:13:37.022Z,17.20
2019-04-25T03:16:08.950Z,17.20
2019-04-25T03:18:37.892Z,17.20
2019-04-25T03:21:13.420Z,17.20
2019-04-25T03:23:42.069Z,17.10
2019-04-25T03:26:09.167Z,17.10
2019-04-25T03:28:40.995Z,17.10
2019-04-25T03:31:17.527Z,17.10
2019-04-25T03:33:41.175Z,17.10
2019-04-25T03:36:09.891Z,17.00
2019-04-25T03:38:38.594Z,17.00
2019-04-25T03:41:07.224Z,17.00
2019-04-25T03:43:35.780Z,17.00
2019-04-25T03:46:05.876Z,16.90
2019-04-25T03:48:36.825Z,16.90
2019-04-25T03:51:05.842Z,16.90
2019-04-25T03:53:35.508Z,16.90
2019-04-25T03:56:05.981Z,16.90
2019-04-25T03:58:35.254Z,16.80
2019-04-25T04:01:06.926Z,16.80
2019-04-25T04:03:34.944Z,16.80
2019-04-25T04:06:05.920Z,16.80
2019-04-25T04:08:34.296Z,16.80
2019-04-25T04:11:06.021Z,16.80
2019-04-25T04:13:34.367Z,16.80
2019-04-25T04:16:03.387Z,16.80
2019-04-25T04:18:34.776Z,16.80
2019-04-25T04:21:07.765Z,16.70
2019-04-25T04:23:37.985Z,16.70
2019-04-25T04:26:07.410Z,16.70
2019-04-25T04:28:36.100Z,16.70
2019-04-25T04:31:04.734Z,16.70
2019-04-25T04:33:34.613Z,16.70
2019-04-25T04:36:03.866Z,16.70
2019-04-25T04:38:34.115Z,16.60
2019-04-25T04:41:03.973Z,16.60
2019-04-25T04:43:34.131Z,16.60
2019-04-25T04:46:03.990Z,16.60
2019-04-25T04:48:34.094Z,16.60
2019-04-25T04:51:03.412Z,16.60
2019-04-25T04:53:35.614Z,16.60
2019-04-25T04:56:04.175Z,16.60
2019-04-25T04:58:34.294Z,16.60
2019-04-25T05:01:03.689Z,16.60
2019-04-25T05:03:34.632Z,16.60
2019-04-25T05:06:15.008Z,16.60
2019-04-25T05:08:51.288Z,16.60
2019-04-25T05:11:19.948Z,16.60
2019-04-25T05:13:48.629Z,16.60
2019-04-25T05:16:17.726Z,16.70
2019-04-25T05:18:46.306Z,16.70
2019-04-25T05:21:15.784Z,16.70
2019-04-25T05:23:45.141Z,16.70
2019-04-25T05:26:15.951Z,16.70
2019-04-25T05:28:44.504Z,16.70
2019-04-25T05:31:25.524Z,16.70
2019-04-25T05:33:53.992Z,16.70
2019-04-25T05:36:24.905Z,16.70
2019-04-25T05:38:53.940Z,16.70
2019-04-25T05:41:30.258Z,16.70
2019-04-25T05:43:58.940Z,16.80
2019-04-25T05:46:27.518Z,16.80
2019-04-25T05:48:56.252Z,16.80
2019-04-25T05:51:25.916Z,16.80
2019-04-25T05:53:55.208Z,16.80
2019-04-25T05:56:26.877Z,16.80
2019-04-25T05:58:54.827Z,16.80
2019-04-25T06:01:24.983Z,16.80
2019-04-25T06:03:53.686Z,16.90
2019-04-25T06:06:23.654Z,16.90
2019-04-25T06:08:54.265Z,16.90
2019-04-25T06:11:36.282Z,17.00
2019-04-25T06:14:06.541Z,17.00
2019-04-25T06:16:35.092Z,17.00
2019-04-25T06:19:13.955Z,17.00
2019-04-25T06:21:38.654Z,17.00
2019-04-25T06:24:24.824Z,17.10
2019-04-25T06:27:01.015Z,17.10
2019-04-25T06:29:29.691Z,17.10
2019-04-25T06:32:05.639Z,17.10
2019-04-25T06:34:31.680Z,17.10
2019-04-25T06:36:58.795Z,17.10
2019-04-25T06:39:27.979Z,17.20
2019-04-25T06:41:56.547Z,17.20
2019-04-25T06:44:29.412Z,17.20
2019-04-25T06:47:08.176Z,17.20
2019-04-25T06:49:38.381Z,17.20
2019-04-25T06:52:07.224Z,17.30
2019-04-25T06:54:35.779Z,17.30
2019-04-25T06:57:04.598Z,17.40
2019-04-25T06:59:34.489Z,17.40
2019-04-25T07:02:04.212Z,17.40
2019-04-25T07:04:34.820Z,17.40
2019-04-25T07:07:10.562Z,17.40
2019-04-25T07:09:34.978Z,17.50
2019-04-25T07:12:04.178Z,17.50
2019-04-25T07:14:33.835Z,17.50
2019-04-25T07:17:04.335Z,17.60
2019-04-25T07:19:34.343Z,17.60
2019-04-25T07:22:03.925Z,17.70
2019-04-25T07:24:35.183Z,17.70
2019-04-25T07:27:10.596Z,17.70
2019-04-25T07:29:40.778Z,17.70
2019-04-25T07:32:14.483Z,17.60
2019-04-25T07:34:43.808Z,17.60
2019-04-25T07:37:13.290Z,17.60
2019-04-25T07:39:42.034Z,17.60
2019-04-25T07:42:10.656Z,17.70
2019-04-25T07:44:49.702Z,17.70
2019-04-25T07:47:09.590Z,17.80
2019-04-25T07:49:38.157Z,17.80
2019-04-25T07:52:06.906Z,17.80
2019-04-25T07:54:36.285Z,17.80
2019-04-25T07:57:05.868Z,17.80
2019-04-25T07:59:35.356Z,17.90
2019-04-25T08:02:05.026Z,17.90
2019-04-25T08:04:35.753Z,17.90
2019-04-25T08:07:04.193Z,18.00
2019-04-25T08:09:34.526Z,18.00
2019-04-25T08:12:03.345Z,18.10
2019-04-25T08:14:43.768Z,18.20
2019-04-25T08:17:15.062Z,18.20
2019-04-25T08:19:44.279Z,18.30
2019-04-25T08:22:14.074Z,18.30
2019-04-25T08:24:43.997Z,18.30
2019-04-25T08:27:13.324Z,18.40
2019-04-25T08:29:42.011Z,18.40
2019-04-25T08:32:10.667Z,18.40
2019-04-25T08:34:39.296Z,18.50
2019-04-25T08:37:17.611Z,18.50
2019-04-25T08:39:39.540Z,18.60
2019-04-25T08:42:08.303Z,18.60
2019-04-25T08:44:36.996Z,18.70
2019-04-25T08:47:05.597Z,18.70
2019-04-25T08:49:36.244Z,18.80
2019-04-25T08:52:05.167Z,18.80
2019-04-25T08:54:39.711Z,18.80
2019-04-25T08:57:07.319Z,18.90
2019-04-25T08:59:52.208Z,18.90
2019-04-25T09:02:27.549Z,19.00
2019-04-25T09:05:04.159Z,19.10
2019-04-25T09:07:35.430Z,19.10
2019-04-25T09:10:03.603Z,19.20
2019-04-25T09:12:35.202Z,19.20
2019-04-25T09:15:04.133Z,19.30
2019-04-25T09:17:35.472Z,19.30
2019-04-25T09:20:04.072Z,19.30
2019-04-25T09:22:35.041Z,19.30
2019-04-25T09:25:03.813Z,19.40
2019-04-25T09:27:34.346Z,19.40
2019-04-25T09:30:03.930Z,19.40
2019-04-25T09:32:33.813Z,19.50
2019-04-25T09:35:03.900Z,19.50
2019-04-25T09:37:33.582Z,19.60
2019-04-25T09:40:11.918Z,19.60
2019-04-25T09:42:41.521Z,19.60
2019-04-25T09:45:28.424Z,19.70
2019-04-25T09:47:58.716Z,19.80
2019-04-25T09:50:31.668Z,19.80
2019-04-25T09:53:00.348Z,19.80
2019-04-25T09:55:39.800Z,19.80
2019-04-25T09:58:18.988Z,19.90
2019-04-25T10:01:05.901Z,19.90
2019-04-25T10:03:34.542Z,20.00
2019-04-25T10:06:03.386Z,20.00
2019-04-25T10:08:32.040Z,20.00
2019-04-25T10:11:00.910Z,20.00
2019-04-25T10:13:29.774Z,20.00
2019-04-25T10:16:06.415Z,20.10
2019-04-25T10:18:35.525Z,20.20
2019-04-25T10:21:06.896Z,20.20
2019-04-25T10:23:35.890Z,20.20
2019-04-25T10:26:05.918Z,20.30
2019-04-25T10:28:34.814Z,20.30
2019-04-25T10:31:03.698Z,20.40
2019-04-25T10:33:32.342Z,20.40
2019-04-25T10:36:01.309Z,20.40
2019-04-25T10:38:30.710Z,20.50
2019-04-25T10:40:59.499Z,20.50
2019-04-25T10:43:28.139Z,20.40
2019-04-25T10:45:56.822Z,20.50
2019-04-25T10:48:25.528Z,20.60
2019-04-25T10:50:55.660Z,20.60
2019-04-25T10:53:25.215Z,20.60
2019-04-25T10:55:54.017Z,20.60
2019-04-25T10:58:22.810Z,20.70
2019-04-25T11:00:53.490Z,20.70
2019-04-25T11:03:36.057Z,20.80
2019-04-25T11:06:05.348Z,20.80
2019-04-25T11:08:34.270Z,20.80
2019-04-25T11:11:03.732Z,20.80
2019-04-25T11:13:33.795Z,20.80
2019-04-25T11:16:03.525Z,20.90
2019-04-25T11:18:33.876Z,20.90
2019-04-25T11:21:04.289Z,20.90
2019-04-25T11:23:33.323Z,20.90
2019-04-25T11:26:03.850Z,21.00
2019-04-25T11:28:33.823Z,21.00
2019-04-25T11:31:05.746Z,21.00
2019-04-25T11:33:35.258Z,21.00
2019-04-25T11:36:05.665Z,21.00
2019-04-25T11:38:54.562Z,21.00
2019-04-25T11:41:26.114Z,21.10
2019-04-25T11:43:55.665Z,21.20
2019-04-25T11:46:25.386Z,21.20
2019-04-25T11:48:54.820Z,21.20
2019-04-25T11:51:24.072Z,21.20
2019-04-25T11:53:54.264Z,21.30
2019-04-25T11:56:24.169Z,21.30
2019-04-25T11:58:54.209Z,21.30
2019-04-25T12:01:24.307Z,21.30
2019-04-25T12:03:54.876Z,21.40
2019-04-25T12:06:24.338Z,21.40
2019-04-25T12:08:54.235Z,21.40
2019-04-25T12:11:26.077Z,21.40
2019-04-25T12:13:55.386Z,21.40
2019-04-25T12:16:24.733Z,21.40
2019-04-25T12:19:02.296Z,21.50
2019-04-25T12:21:30.827Z,21.50
2019-04-25T12:24:01.725Z,21.50
2019-04-25T12:26:29.782Z,21.50
2019-04-25T12:28:58.365Z,21.60
2019-04-25T12:31:27.002Z,21.60
2019-04-25T12:33:56.413Z,21.70
2019-04-25T12:36:28.020Z,21.70
2019-04-25T12:38:56.379Z,21.70
2019-04-25T12:41:26.380Z,21.70
2019-04-25T12:43:56.700Z,21.70
2019-04-25T12:46:26.959Z,21.70
2019-04-25T12:48:55.529Z,21.70
2019-04-25T12:51:24.240Z,21.80
2019-04-25T12:53:54.691Z,21.80
2019-04-25T12:56:24.806Z,21.80
2019-04-25T12:58:53.862Z,21.90
2019-04-25T13:01:24.843Z,21.90
2019-04-25T13:03:54.356Z,21.90
2019-04-25T13:06:23.917Z,21.90
2019-04-25T13:08:54.276Z,22.00
2019-04-25T13:11:23.987Z,22.00
2019-04-25T13:13:52.705Z,22.00
2019-04-25T13:16:21.358Z,22.10
2019-04-25T13:18:50.227Z,22.10
2019-04-25T13:21:19.150Z,22.10
2019-04-25T13:23:47.878Z,22.20
2019-04-25T13:26:18.152Z,22.20
2019-04-25T13:28:48.747Z,22.20
2019-04-25T13:31:19.018Z,22.20
2019-04-25T13:33:55.147Z,22.20
2019-04-25T13:36:24.136Z,22.20
2019-04-25T13:38:53.991Z,22.10
2019-04-25T13:41:22.732Z,22.10
2019-04-25T13:43:53.095Z,22.10
2019-04-25T13:46:24.687Z,22.10
2019-04-25T13:48:51.923Z,22.20
2019-04-25T13:51:23.011Z,22.20
2019-04-25T13:53:52.116Z,22.30
2019-04-25T13:56:20.730Z,22.30
2019-04-25T13:58:49.362Z,22.40
2019-04-25T14:01:20.267Z,22.40
2019-04-25T14:03:49.624Z,22.50
2019-04-25T14:06:18.244Z,22.50
2019-04-25T14:08:46.930Z,22.50
2019-04-25T14:11:16.819Z,22.50
2019-04-25T14:13:45.658Z,22.60
2019-04-25T14:16:22.575Z,22.70
2019-04-25T14:19:10.061Z,22.80
2019-04-25T14:21:39.208Z,22.80
2019-04-25T14:24:19.675Z,22.90
2019-04-25T14:26:37.994Z,23.10
2019-04-25T14:29:06.592Z,23.10
2019-04-25T14:31:44.877Z,23.10
2019-04-25T14:34:05.690Z,23.10
2019-04-25T14:36:34.592Z,23.00
2019-04-25T14:39:03.299Z,22.90
2019-04-25T14:41:32.371Z,22.90
2019-04-25T14:44:02.059Z,22.90
2019-04-25T14:46:30.723Z,22.90
2019-04-25T14:48:59.290Z,23.00
2019-04-25T14:51:28.182Z,23.20
2019-04-25T14:53:57.992Z,23.30
2019-04-25T14:56:40.161Z,23.30
2019-04-25T14:59:09.321Z,23.20
2019-04-25T15:01:45.029Z,23.10
2019-04-25T15:04:08.526Z,23.10
2019-04-25T15:06:37.318Z,23.20
2019-04-25T15:09:07.817Z,23.20
2019-04-25T15:11:36.545Z,23.10
2019-04-25T15:14:05.325Z,23.00
2019-04-25T15:16:34.007Z,23.00
2019-04-25T15:19:02.752Z,23.10
2019-04-25T15:21:31.889Z,23.30
2019-04-25T15:24:00.628Z,23.40
2019-04-25T15:26:29.217Z,23.30
2019-04-25T15:28:57.895Z,23.40
2019-04-25T15:31:28.043Z,23.80
2019-04-25T15:33:58.511Z,23.90
2019-04-25T15:36:37.743Z,23.90
2019-04-25T15:39:26.085Z,24.10
2019-04-25T15:41:56.460Z,24.20
2019-04-25T15:44:43.519Z,24.30
2019-04-25T15:47:13.816Z,24.40
2019-04-25T15:49:42.927Z,24.40
2019-04-25T15:52:11.926Z,24.30
2019-04-25T15:54:40.517Z,24.20
2019-04-25T15:57:09.549Z,24.00
2019-04-25T15:59:38.201Z,23.80
2019-04-25T16:02:08.616Z,23.90
2019-04-25T16:04:37.426Z,24.00
2019-04-25T16:07:06.299Z,24.00
2019-04-25T16:09:34.950Z,23.90
2019-04-25T16:12:03.670Z,23.90
2019-04-25T16:14:33.332Z,23.80
2019-04-25T16:17:02.037Z,23.80
2019-04-25T16:19:31.535Z,23.80
2019-04-25T16:22:00.305Z,23.70
2019-04-25T16:24:30.246Z,23.70
2019-04-25T16:26:59.014Z,23.70
2019-04-25T16:29:27.763Z,23.70
2019-04-25T16:31:58.393Z,23.90
2019-04-25T16:34:27.054Z,24.10
2019-04-25T16:36:55.787Z,24.10
2019-04-25T16:39:26.322Z,24.10
2019-04-25T16:41:55.070Z,24.10
2019-04-25T16:44:23.834Z,24.10
2019-04-25T16:46:52.672Z,24.00
2019-04-25T16:49:21.608Z,24.10
2019-04-25T16:51:50.322Z,24.40
2019-04-25T16:54:19.023Z,24.80
2019-04-25T16:56:47.947Z,25.00
2019-04-25T16:59:16.557Z,25.20
2019-04-25T17:01:45.376Z,25.30
2019-04-25T17:04:14.100Z,25.20
2019-04-25T17:06:42.772Z,25.40
2019-04-25T17:09:11.411Z,25.80
2019-04-25T17:11:41.827Z,26.00
2019-04-25T17:14:21.203Z,26.30
2019-04-25T17:17:03.729Z,26.40
2019-04-25T17:19:43.085Z,26.50
2019-04-25T17:22:11.773Z,26.30
2019-04-25T17:24:41.225Z,26.10
2019-04-25T17:27:10.879Z,25.90
2019-04-25T17:29:40.104Z,25.60
2019-04-25T17:32:12.293Z,25.40
2019-04-25T17:34:51.465Z,25.20
2019-04-25T17:37:27.535Z,25.00
2019-04-25T17:40:04.056Z,24.80
2019-04-25T17:42:33.602Z,24.70
2019-04-25T17:45:05.170Z,24.60
2019-04-25T17:47:34.581Z,24.60
2019-04-25T17:50:09.363Z,24.60
2019-04-25T17:52:38.293Z,24.70
2019-04-25T17:55:08.278Z,24.80
2019-04-25T17:57:37.851Z,24.90
2019-04-25T18:00:10.177Z,25.00
2019-04-25T18:02:39.168Z,25.30
2019-04-25T18:05:07.916Z,25.80
2019-04-25T18:07:36.521Z,26.30
2019-04-25T18:10:06.601Z,26.60
2019-04-25T18:12:35.526Z,26.60
2019-04-25T18:15:08.932Z,26.40
2019-04-25T18:17:38.082Z,26.10
2019-04-25T18:20:12.278Z,25.90
2019-04-25T18:22:48.303Z,25.70
2019-04-25T18:25:36.945Z,25.60
2019-04-25T18:28:07.146Z,25.40
2019-04-25T18:30:36.928Z,25.10
2019-04-25T18:33:22.268Z,24.80
2019-04-25T18:35:52.531Z,24.60
2019-04-25T18:38:38.040Z,24.40
2019-04-25T18:41:11.898Z,24.20
2019-04-25T18:43:48.029Z,24.10
2019-04-25T18:46:24.161Z,24.00
2019-04-25T18:48:52.969Z,23.90
2019-04-25T18:51:21.624Z,23.90
2019-04-25T18:53:57.622Z,23.90
2019-04-25T18:56:28.110Z,23.80
2019-04-25T18:59:01.157Z,23.70
2019-04-25T19:01:38.149Z,23.60
2019-04-25T19:04:26.721Z,23.60
2019-04-25T19:06:58.186Z,23.50
2019-04-25T19:09:25.951Z,23.40
2019-04-25T19:11:54.609Z,23.30
2019-04-25T19:14:23.264Z,23.30
2019-04-25T19:16:52.124Z,23.20
2019-04-25T19:19:21.063Z,23.10
2019-04-25T19:21:50.186Z,23.10
2019-04-25T19:24:18.823Z,23.10
2019-04-25T19:26:47.926Z,23.10
2019-04-25T19:29:16.663Z,23.10
2019-04-25T19:31:46.255Z,23.10
2019-04-25T19:34:14.975Z,23.10
2019-04-25T19:36:43.668Z,23.10
2019-04-25T19:39:14.439Z,23.00
2019-04-25T19:41:45.021Z,23.00
2019-04-25T19:44:18.828Z,23.00
2019-04-25T19:46:49.298Z,22.90
2019-04-25T19:49:17.959Z,22.90
2019-04-25T19:51:47.261Z,22.80
2019-04-25T19:54:15.866Z,22.80
2019-04-25T19:56:45.334Z,22.80
2019-04-25T19:59:13.975Z,22.80
2019-04-25T20:01:42.766Z,22.80
2019-04-25T20:04:24.811Z,22.80
2019-04-25T20:07:11.378Z,22.80
2019-04-25T20:09:51.082Z,22.70
2019-04-25T20:12:21.476Z,22.70
2019-04-25T20:14:50.093Z,22.70
2019-04-25T20:17:18.980Z,22.70
2019-04-25T20:19:47.720Z,22.70
2019-04-25T20:22:16.366Z,22.60
2019-04-25T20:24:46.230Z,22.60
2019-04-25T20:27:14.864Z,22.60
2019-04-25T20:29:44.146Z,22.50
2019-04-25T20:32:13.749Z,22.40
2019-04-25T20:34:42.418Z,22.40
2019-04-25T20:37:11.041Z,22.40
2019-04-25T20:39:39.607Z,22.30
2019-04-25T20:42:08.274Z,22.30
2019-04-25T20:44:36.955Z,22.30
2019-04-25T20:47:05.633Z,22.30
2019-04-25T20:49:34.208Z,22.30
2019-04-25T20:52:02.758Z,22.20
2019-04-25T20:54:31.414Z,22.20
2019-04-25T20:57:01.612Z,22.20
2019-04-25T20:59:30.264Z,22.30
2019-04-25T21:01:59.344Z,22.30
2019-04-25T21:04:42.676Z,22.30
2019-04-25T21:07:11.360Z,22.30
2019-04-25T21:09:40.444Z,22.30
2019-04-25T21:12:09.353Z,22.30
2019-04-25T21:14:52.722Z,22.20
2019-04-25T21:17:25.865Z,22.20
2019-04-25T21:19:56.324Z,22.20
2019-04-25T21:22:24.867Z,22.20
2019-04-25T21:24:53.827Z,22.20
2019-04-25T21:27:22.500Z,22.20
2019-04-25T21:29:52.016Z,22.10
2019-04-25T21:32:22.068Z,22.10
2019-04-25T21:34:50.942Z,22.10
2019-04-25T21:37:20.664Z,22.10
2019-04-25T21:39:53.815Z,22.00
2019-04-25T21:42:34.459Z,21.90
2019-04-25T21:45:03.498Z,21.90
2019-04-25T21:47:32.063Z,21.50
2019-04-25T21:50:02.807Z,21.00
2019-04-25T21:52:33.547Z,20.70
2019-04-25T21:55:01.910Z,20.50
2019-04-25T21:57:30.863Z,20.10
2019-04-25T22:00:06.107Z,19.90
2019-04-25T22:02:30.487Z,19.70
2019-04-25T22:04:59.574Z,19.50
2019-04-25T22:07:31.728Z,19.10
2019-04-25T22:10:01.631Z,18.90
2019-04-25T22:12:30.799Z,18.70
2019-04-25T22:14:59.513Z,18.50
2019-04-25T22:17:28.247Z,18.30
2019-04-25T22:19:57.862Z,18.40
2019-04-25T22:22:27.047Z,18.30
2019-04-25T22:24:56.179Z,18.30
2019-04-25T22:27:27.429Z,18.20
2019-04-25T22:29:58.727Z,18.10
2019-04-25T22:32:32.516Z,17.90
2019-04-25T22:35:14.861Z,17.80
2019-04-25T22:37:43.560Z,17.60
2019-04-25T22:40:12.776Z,17.40
2019-04-25T22:42:41.436Z,17.30
2019-04-25T22:45:10.272Z,17.30
2019-04-25T22:47:38.859Z,17.30
2019-04-25T22:50:07.544Z,17.30
2019-04-25T22:52:37.250Z,17.20
2019-04-25T22:55:06.639Z,17.30
2019-04-25T22:57:35.493Z,17.40
2019-04-25T23:00:08.898Z,17.40
2019-04-25T23:02:39.394Z,17.30
2019-04-25T23:05:14.400Z,17.20
2019-04-25T23:07:40.176Z,17.10
2019-04-25T23:10:09.354Z,17.00
2019-04-25T23:12:38.783Z,17.00
2019-04-25T23:15:08.784Z,16.90
2019-04-25T23:17:37.387Z,16.80
2019-04-25T23:20:07.499Z,16.60
2019-04-25T23:22:36.186Z,16.50
2019-04-25T23:25:17.712Z,16.40
2019-04-25T23:27:53.692Z,16.30
2019-04-25T23:30:24.140Z,16.20
2019-04-25T23:32:52.775Z,16.10
2019-04-25T23:35:29.532Z,16.00
2019-04-25T23:37:51.672Z,15.90
2019-04-25T23:40:20.229Z,15.80
2019-04-25T23:42:48.810Z,15.80
2019-04-25T23:45:17.400Z,15.80
2019-04-25T23:47:46.098Z,15.80
2019-04-25T23:50:15.476Z,15.80
2019-04-25T23:52:44.134Z,15.80
2019-04-25T23:55:13.115Z,15.80
2019-04-25T23:57:41.708Z,15.70
